Aydlett, North Carolina
Current Conditions -  °F | °C
As of 10:35 PM on Monday 22 Dec 2014 (Local Time) from KONX Reporting Station
Haze Haze  
Wind Chill: 47°   Ceiling: 100
Heat Index: 49°   Visibility: 1mi
Dew Point: 48°   Wind: 5mph
Humidity: 95%   Direction: 320°NW
Pressure: 29.99"   Gusts: NA
Location:  36.33°N, 75.91°W
Report Text: KONX 230335Z AUTO 32004KT 1SM BR OVC001 10/09 A2999 RMK AO2 T00950087
Loading
Personal Weather Stations






























Interactive Weather Map New forecast layout! Learn more

10-Day Weather Forecast

Advertisements
Track Severe Weather on mobile